Hilham, Tennessee
Current Conditions -  °F | °C
As of 6:35 AM on Thursday 25 Dec 2014 (Local Time) from KSRB Reporting Station
Broken Clouds Broken Clouds  
Wind Chill: 39°   Ceiling: 3000
Heat Index: 39°   Visibility: 10mi
Dew Point: 37°   Wind: 0mph
Humidity: 93%   Direction: NA
Pressure: 30.11"   Gusts: NA
Location:  36.41°N, 85.44°W
Report Text: KSRB 251235Z AUTO 00000KT 10SM SCT017 BKN030 04/03 A3011 RMK
Loading
Personal Weather Stations






























Interactive Weather Map New forecast layout! Learn more

10-Day Weather Forecast

Advertisements
Track Severe Weather on mobile